San Angelo, Texas
Current Conditions -  °F | °C
As of 2:51 AM on Monday 20 Oct 2014 (Local Time) from KSJT Reporting Station
Clear Clear  
Wind Chill: 59°   Ceiling: Unl
Heat Index: 59°   Visibility: 10mi
Dew Point: 53°   Wind: 8mph
Humidity: 81%   Direction: 110°ESE
Pressure: 30.05"   Gusts: NA
Location:  31.46°N, 100.44°W
Report Text: KSJT 200751Z AUTO 11007KT 10SM CLR 15/12 A3005 RMK AO2 SLP159 T01500117
Loading
Personal Weather Stations






























Interactive Weather Map New forecast layout! Learn more

10-Day Weather Forecast

Advertisements
Track Severe Weather on mobile